Time;durP1;ratioP1;P1;durP2;ratioP2;P2;SDS_P1;SDS_P2;PMS_P1;PMS_P2;Temp;Humidity;BMP_temperature;BMP_pressure;BME280_temperature;BME280_humidity;BME280_pressure;Samples;Min_cycle;Max_cycle;Signal;HPM_P1;HPM_P2
2022/05/25 00:01:04;;;;;;;5.47;3.30;;;;;;;8.85;100.00;101109.75;4948454;28;20181;-74
2022/05/25 00:03:32;;;;;;;4.00;3.42;;;;;;;8.67;100.00;101087.66;4976196;28;20351;-73
2022/05/25 00:05:58;;;;;;;5.15;3.60;;;;;;;8.79;100.00;101115.53;4950179;28;20417;-73
2022/05/25 00:08:24;;;;;;;4.50;3.10;;;;;;;8.76;100.00;101115.00;4976383;28;20076;-73
2022/05/25 00:10:49;;;;;;;5.53;3.85;;;;;;;8.60;100.00;101099.66;4979019;28;20427;-73
2022/05/25 00:13:14;;;;;;;6.53;3.30;;;;;;;8.68;100.00;101125.31;4958798;28;20173;-74
2022/05/25 00:15:40;;;;;;;5.28;3.20;;;;;;;8.63;100.00;101121.28;4981198;28;20479;-74
2022/05/25 00:18:06;;;;;;;3.63;3.00;;;;;;;8.60;100.00;101124.19;4952376;28;20677;-73
2022/05/25 00:20:31;;;;;;;6.90;3.08;;;;;;;8.54;100.00;101134.41;4974106;28;20078;-74
2022/05/25 00:22:57;;;;;;;4.60;3.65;;;;;;;8.50;100.00;101123.28;4971062;28;20031;-74
2022/05/25 00:25:30;;;;;;;4.53;3.35;;;;;;;8.52;100.00;101129.25;4974841;28;20038;-74
2022/05/25 00:27:59;;;;;;;5.38;3.78;;;;;;;8.47;100.00;101123.56;4984353;28;20021;-74
2022/05/25 00:30:25;;;;;;;5.80;3.58;;;;;;;8.48;100.00;101122.59;4974989;28;20030;-74
2022/05/25 00:32:51;;;;;;;6.75;3.83;;;;;;;8.53;100.00;101123.03;4983829;28;20034;-74
2022/05/25 00:35:19;;;;;;;5.13;3.90;;;;;;;8.57;100.00;101129.69;4979796;28;20149;-74
2022/05/25 00:37:45;;;;;;;4.68;3.05;;;;;;;8.55;100.00;101120.28;4962405;28;20069;-74
2022/05/25 00:40:14;;;;;;;7.55;3.95;;;;;;;8.62;100.00;101129.31;4982448;28;20047;-72
2022/05/25 00:42:39;;;;;;;6.03;3.83;;;;;;;8.62;100.00;101119.63;4986615;28;20537;-73
2022/05/25 00:45:06;;;;;;;5.78;4.05;;;;;;;8.63;100.00;101123.91;4971808;28;20046;-73
2022/05/25 00:47:33;;;;;;;6.93;4.28;;;;;;;8.63;100.00;101121.28;4981112;28;20025;-74
2022/05/25 00:49:59;;;;;;;5.30;4.15;;;;;;;8.63;100.00;101121.28;4966408;28;20027;-73
2022/05/25 00:52:26;;;;;;;10.60;4.50;;;;;;;8.50;100.00;101093.53;4958217;28;20034;-74
2022/05/25 00:54:56;;;;;;;5.72;4.13;;;;;;;8.62;100.00;101132.78;4964309;28;20043;-74
2022/05/25 00:57:26;;;;;;;6.03;4.33;;;;;;;8.45;100.00;101107.09;4980360;28;20382;-72
2022/05/25 01:00:04;;;;;;;6.95;4.30;;;;;;;8.55;100.00;101130.78;4965748;28;20105;-74
2022/05/25 01:02:32;;;;;;;5.32;3.92;;;;;;;8.51;100.00;101135.47;4984435;28;20034;-73
2022/05/25 01:04:58;;;;;;;6.22;4.63;;;;;;;8.45;100.00;101136.00;4980249;28;20038;-73
2022/05/25 01:07:53;;;;;;;6.38;4.63;;;;;;;8.34;100.00;101123.72;4992810;28;20031;-73
2022/05/25 01:10:35;;;;;;;6.47;4.60;;;;;;;8.40;100.00;101132.88;4987151;28;20474;-73
2022/05/25 01:13:15;;;;;;;6.03;5.03;;;;;;;8.42;100.00;101136.25;4979119;28;20093;-74
2022/05/25 01:16:13;;;;;;;9.27;5.10;;;;;;;8.36;100.00;101127.06;4976693;28;20421;-73
2022/05/25 01:18:46;;;;;;;8.07;5.38;;;;;;;8.40;100.00;101131.13;4979861;28;20077;-74
2022/05/25 01:21:21;;;;;;;10.07;5.30;;;;;;;8.42;100.00;101133.63;4979005;28;20039;-74
2022/05/25 01:23:55;;;;;;;9.50;5.20;;;;;;;8.37;100.00;101133.16;4985963;28;20018;-74
2022/05/25 01:26:35;;;;;;;6.65;5.07;;;;;;;8.41;100.00;101139.88;4986947;28;20036;-74
2022/05/25 01:29:49;;;;;;;9.10;5.28;;;;;;;8.44;100.00;101140.41;4975723;28;20027;-74
2022/05/25 01:32:29;;;;;;;7.80;5.85;;;;;;;8.47;100.00;101134.09;4967535;28;20043;-74
2022/05/25 01:35:05;;;;;;;10.52;5.65;;;;;;;8.39;100.00;101123.34;4978460;28;20027;-73
2022/05/25 01:37:41;;;;;;;9.07;5.88;;;;;;;8.48;100.00;101134.91;4977707;28;20081;-73
2022/05/25 01:40:09;;;;;;;9.55;5.72;;;;;;;8.55;100.00;101142.16;4983722;28;20538;-75
2022/05/25 01:42:46;;;;;;;8.40;6.32;;;;;;;8.52;100.00;101137.16;4979638;28;20109;-73
2022/05/25 01:45:14;;;;;;;9.32;6.07;;;;;;;8.38;100.00;101119.03;4974509;28;20062;-73
2022/05/25 01:47:44;;;;;;;10.25;6.10;;;;;;;8.46;100.00;101142.09;4960939;28;20037;-73
2022/05/25 01:50:14;;;;;;;12.40;6.32;;;;;;;8.43;100.00;101145.84;4974904;28;20026;-74
2022/05/25 01:52:44;;;;;;;7.97;6.07;;;;;;;8.43;100.00;101143.19;4978338;28;20065;-74
2022/05/25 01:55:18;;;;;;;9.27;5.90;;;;;;;8.34;100.00;101133.41;4977138;28;20057;-74
2022/05/25 01:57:49;;;;;;;9.52;6.32;;;;;;;8.41;100.00;101153.00;4979915;28;20026;-74
2022/05/25 02:00:44;;;;;;;;;;;;;;;8.41;100.00;101150.38;4977158;28;20030;-74
2022/05/25 02:06:19;;;;;;;10.05;5.97;;;;;;;8.36;100.00;101160.41;4935108;29;20070;-73
2022/05/25 02:09:20;;;;;;;8.50;6.55;;;;;;;8.32;100.00;101148.47;4939858;29;20042;-73
2022/05/25 02:11:49;;;;;;;12.13;6.03;;;;;;;8.29;100.00;101140.84;4912003;29;20041;-74
2022/05/25 02:14:32;;;;;;;11.48;6.90;;;;;;;8.28;100.00;101142.66;4909922;29;20288;-73
2022/05/25 02:17:12;;;;;;;8.68;6.55;;;;;;;8.30;100.00;101145.16;4909005;29;20072;-74
2022/05/25 02:19:59;;;;;;;10.57;7.05;;;;;;;8.32;100.00;101145.84;4911608;29;20048;-74
2022/05/25 02:22:30;;;;;;;11.95;7.47;;;;;;;8.32;100.00;101145.84;4911755;29;20032;-73
2022/05/25 02:25:03;;;;;;;11.85;8.35;;;;;;;8.30;100.00;101139.91;4912010;29;20559;-74
2022/05/25 02:27:33;;;;;;;12.82;7.88;;;;;;;8.22;100.00;101133.47;4909288;29;20040;-75
2022/05/25 02:30:04;;;;;;;13.95;7.47;;;;;;;8.23;100.00;101145.66;4911675;29;20032;-74
2022/05/25 02:32:41;;;;;;;12.77;7.38;;;;;;;8.21;100.00;101144.13;4910620;29;20103;-74
2022/05/25 02:35:08;;;;;;;12.75;7.13;;;;;;;8.11;100.00;101128.25;4908528;29;20032;-74
2022/05/25 02:37:34;;;;;;;14.00;8.07;;;;;;;8.19;100.00;101151.31;4909868;29;20036;-74
2022/05/25 02:40:01;;;;;;;14.18;8.55;;;;;;;8.17;100.00;101148.78;4897078;29;20064;-73
2022/05/25 02:42:27;;;;;;;12.60;7.25;;;;;;;8.16;100.00;101155.00;4892738;29;20120;-73
2022/05/25 02:44:54;;;;;;;16.73;8.75;;;;;;;8.17;100.00;101159.31;4900849;29;20078;-74
2022/05/25 02:47:19;;;;;;;12.30;8.00;;;;;;;8.05;100.00;101131.41;4955988;28;20059;-74
2022/05/25 02:49:45;;;;;;;11.55;7.68;;;;;;;8.18;100.00;101150.44;4952154;28;20491;-74
2022/05/25 02:52:11;;;;;;;11.73;7.80;;;;;;;8.12;100.00;101144.88;4958026;28;20085;-73
2022/05/25 02:54:37;;;;;;;15.00;9.77;;;;;;;8.20;100.00;101152.97;4952755;28;20033;-73
2022/05/25 02:57:04;;;;;;;14.88;8.25;;;;;;;8.22;100.00;101157.13;4955098;28;20113;-73
2022/05/25 02:59:29;;;;;;;13.77;8.70;;;;;;;8.22;100.00;101167.66;4970451;28;20019;-73
2022/05/25 03:01:55;;;;;;;14.38;9.23;;;;;;;8.19;100.00;101167.91;4954653;28;20023;-73
2022/05/25 03:04:20;;;;;;;13.90;8.20;;;;;;;8.15;100.00;101171.75;4976985;28;20039;-74
2022/05/25 03:06:46;;;;;;;15.30;9.40;;;;;;;8.10;100.00;101168.66;4958743;28;20065;-73
2022/05/25 03:09:11;;;;;;;11.25;8.57;;;;;;;7.98;100.00;101154.72;4954817;28;20031;-73
2022/05/25 03:11:37;;;;;;;12.10;8.60;;;;;;;8.03;100.00;101170.13;4957724;28;20031;-75
2022/05/25 03:14:02;;;;;;;14.20;9.00;;;;;;;8.03;100.00;101173.59;4955563;28;20551;-75
2022/05/25 03:16:29;;;;;;;14.10;9.50;;;;;;;8.06;100.00;101174.28;4971410;28;20376;-75
2022/05/25 03:18:55;;;;;;;14.35;9.00;;;;;;;8.04;100.00;101174.44;4955932;28;20038;-75
2022/05/25 03:21:21;;;;;;;18.08;9.82;;;;;;;8.06;100.00;101184.78;4955985;28;20038;-73
2022/05/25 03:23:46;;;;;;;18.63;10.00;;;;;;;8.07;100.00;101183.84;4956892;28;20182;-75
2022/05/25 03:26:12;;;;;;;16.65;10.45;;;;;;;8.07;100.00;101182.06;4954967;28;20439;-74
2022/05/25 03:28:38;;;;;;;16.95;11.40;;;;;;;8.07;100.00;101184.69;4964424;28;20019;-75
2022/05/25 03:31:04;;;;;;;16.23;10.45;;;;;;;8.11;100.00;101186.09;4957070;28;20075;-75
2022/05/25 03:33:30;;;;;;;14.43;9.55;;;;;;;8.13;100.00;101178.94;4955641;28;20035;-73
2022/05/25 03:35:56;;;;;;;14.90;9.60;;;;;;;8.14;100.00;101183.22;4964486;28;20049;-75
2022/05/25 03:38:21;;;;;;;19.10;11.65;;;;;;;8.09;100.00;101185.38;4953164;28;20027;-75
2022/05/25 03:40:47;;;;;;;15.77;10.30;;;;;;;8.11;100.00;101186.09;4970464;28;20047;-75
2022/05/25 03:43:16;;;;;;;17.35;10.98;;;;;;;7.95;100.00;101160.25;4975042;28;20047;-75
2022/05/25 03:45:42;;;;;;;17.35;10.95;;;;;;;8.10;100.00;101189.72;4972241;28;20042;-75
2022/05/25 03:48:08;;;;;;;15.82;10.63;;;;;;;8.03;100.00;101175.38;4966712;28;20031;-75
2022/05/25 03:50:40;;;;;;;20.60;10.18;;;;;;;8.07;100.00;101183.84;4973515;28;20053;-75
2022/05/25 03:53:07;;;;;;;19.13;11.55;;;;;;;8.12;100.00;101195.66;4947699;28;20038;-75
2022/05/25 03:55:34;;;;;;;16.48;10.60;;;;;;;8.15;100.00;101198.03;4982537;28;20770;-75
2022/05/25 03:58:00;;;;;;;21.33;11.35;;;;;;;8.19;100.00;101209.16;4977973;28;20031;-75
2022/05/25 04:00:25;;;;;;;16.67;11.65;;;;;;;8.20;100.00;101193.22;4968267;28;20082;-75
2022/05/25 04:02:51;;;;;;;21.35;11.40;;;;;;;8.16;100.00;101197.06;4958424;28;20064;-75
2022/05/25 04:05:18;;;;;;;16.23;10.38;;;;;;;8.23;100.00;101205.28;4969803;28;20126;-75
2022/05/25 04:07:46;;;;;;;19.75;10.65;;;;;;;8.24;100.00;101199.91;4977940;28;20556;-75
2022/05/25 04:10:15;;;;;;;19.40;11.43;;;;;;;8.27;100.00;101206.69;4965447;28;20634;-75
2022/05/25 04:12:42;;;;;;;21.33;11.73;;;;;;;8.30;100.00;101211.72;4977706;28;20077;-74
2022/05/25 04:15:09;;;;;;;15.90;10.35;;;;;;;8.31;100.00;101202.03;4969040;28;20391;-74
2022/05/25 04:17:35;;;;;;;21.20;10.57;;;;;;;8.35;100.00;101204.28;4989712;28;20054;-74
2022/05/25 04:20:01;;;;;;;20.98;11.30;;;;;;;8.26;100.00;101183.19;4976708;28;20564;-75
2022/05/25 04:22:27;;;;;;;20.15;11.15;;;;;;;8.44;100.00;101208.81;4986663;28;20085;-75
2022/05/25 04:24:52;;;;;;;17.42;10.80;;;;;;;8.45;100.00;101199.16;4979250;28;20167;-75
2022/05/25 04:27:18;;;;;;;20.95;11.57;;;;;;;8.44;100.00;101197.47;4963416;28;20371;-76
2022/05/25 04:29:44;;;;;;;18.98;11.30;;;;;;;8.48;100.00;101201.50;4978140;28;20022;-75
2022/05/25 04:32:09;;;;;;;18.08;11.10;;;;;;;8.41;100.00;101184.56;4962001;28;20909;-75
2022/05/25 04:34:35;;;;;;;18.48;11.10;;;;;;;8.57;100.00;101195.47;4964706;28;20513;-75
2022/05/25 04:37:48;;;;;;;19.23;11.07;;;;;;;8.65;100.00;101206.19;4986207;28;20069;-74
2022/05/25 04:39:46;;;;;;;21.25;11.75;;;;;;;8.60;100.00;101184.72;4973924;28;20054;-75
2022/05/25 04:42:11;;;;;;;20.27;12.10;;;;;;;8.63;100.00;101187.06;4975980;28;20502;-75
2022/05/25 04:44:37;;;;;;;16.20;10.48;;;;;;;8.83;100.00;101205.59;4960334;28;20137;-74
2022/05/25 04:47:05;;;;;;;16.55;10.63;;;;;;;8.92;100.00;101201.34;4976594;28;20051;-75
2022/05/25 04:49:30;;;;;;;20.35;10.93;;;;;;;9.03;100.00;101203.91;4982944;28;20482;-75
2022/05/25 04:51:56;;;;;;;17.92;11.27;;;;;;;9.20;100.00;101211.19;4977326;28;20045;-77
2022/05/25 04:54:21;;;;;;;24.40;13.27;;;;;;;9.30;100.00;101203.34;4973029;28;20035;-75
2022/05/25 04:57:29;;;;;;;23.70;13.07;;;;;;;9.49;100.00;101210.47;4964581;28;20038;-75
2022/05/25 04:59:35;;;;;;;17.05;10.13;;;;;;;9.55;100.00;101199.41;4976745;28;20042;-73
2022/05/25 05:02:00;;;;;;;18.30;11.13;;;;;;;9.83;100.00;101205.69;4961947;28;20045;-73
2022/05/25 05:04:26;;;;;;;17.45;11.60;;;;;;;9.94;100.00;101214.47;4960009;28;20054;-75
2022/05/25 05:06:52;;;;;;;15.27;9.65;;;;;;;10.01;100.00;101208.50;4960739;28;20550;-75
2022/05/25 05:09:18;;;;;;;14.45;8.75;;;;;;;10.14;100.00;101207.41;4966008;28;20621;-74
2022/05/25 05:11:44;;;;;;;17.27;10.98;;;;;;;10.12;100.00;101186.44;4969671;28;20026;-74
2022/05/25 05:14:10;;;;;;;13.07;9.45;;;;;;;10.25;100.00;101192.25;4963772;28;20053;-75
2022/05/25 05:16:35;;;;;;;15.43;9.18;;;;;;;10.37;100.00;101190.34;4982239;28;20026;-75
2022/05/25 05:19:00;;;;;;;13.10;9.35;;;;;;;10.57;100.00;101198.25;4976602;28;20031;-74
2022/05/25 05:21:26;;;;;;;11.68;8.40;;;;;;;10.48;100.00;101186.72;4981835;28;20445;-74
2022/05/25 05:23:51;;;;;;;15.05;8.48;;;;;;;10.66;100.00;101202.66;4954275;28;20061;-74
2022/05/25 05:26:26;;;;;;;10.60;7.18;;;;;;;10.80;100.00;101188.19;4979650;28;20014;-74
2022/05/25 05:28:53;;;;;;;12.20;8.32;;;;;;;10.91;100.00;101201.25;4927366;28;20031;-74
2022/05/25 05:31:22;;;;;;;10.43;7.13;;;;;;;11.17;100.00;101211.13;4958998;28;21195;-76
2022/05/25 05:33:48;;;;;;;10.90;7.90;;;;;;;11.32;100.00;101207.91;4976151;28;20041;-75
2022/05/25 05:36:18;;;;;;;11.98;7.60;;;;;;;11.40;100.00;101204.50;4971807;28;20038;-73
2022/05/25 05:39:03;;;;;;;16.27;7.63;;;;;;;11.42;100.00;101209.66;4973249;28;20080;-77
2022/05/25 05:41:34;;;;;;;14.90;8.18;;;;;;;11.32;100.00;101185.91;4978661;28;20045;-75
2022/05/25 05:44:00;;;;;;;9.75;7.05;;;;;;;11.26;100.00;101194.44;4959028;28;20034;-75
2022/05/25 05:46:27;;;;;;;10.15;6.47;;;;;;;11.20;100.00;101198.47;4966585;28;20349;-75
2022/05/25 05:48:54;;;;;;;10.02;7.53;;;;;;;11.19;100.00;101178.34;4981452;28;20415;-76
2022/05/25 05:51:20;;;;;;;9.98;6.60;;;;;;;11.50;100.00;101218.50;4946619;28;20107;-74
2022/05/25 05:53:46;;;;;;;10.13;6.93;;;;;;;11.64;100.00;101201.31;4976285;28;20660;-75
2022/05/25 05:56:12;;;;;;;10.88;8.25;;;;;;;11.73;100.00;101204.88;4959982;28;20089;-77
2022/05/25 05:58:38;;;;;;;10.52;6.57;;;;;;;11.57;100.00;101178.28;4954356;28;20041;-76
2022/05/25 06:01:04;;;;;;;8.98;6.55;;;;;;;11.62;100.00;101154.88;4953354;28;20035;-76
2022/05/25 06:03:29;;;;;;;10.98;7.32;;;;;;;11.85;100.00;101187.00;4980292;28;20482;-76
2022/05/25 06:05:58;;;;;;;12.27;6.80;;;;;;;11.04;100.00;101024.78;4949255;28;20080;-76
2022/05/25 06:08:29;;;;;;;13.10;6.75;;;;;;;10.87;100.00;101000.00;4958514;28;20489;-77
2022/05/25 06:10:58;;;;;;;12.57;6.07;;;;;;;11.03;99.16;100999.34;4949148;28;20397;-76
2022/05/25 06:13:26;;;;;;;8.90;5.82;;;;;;;11.94;99.71;101123.47;4943173;28;20134;-75
2022/05/25 06:22:03;;;;;;;9.00;5.85;;;;;;;11.89;97.95;101070.22;4937215;28;20070;-75
2022/05/25 06:24:43;;;;;;;8.98;5.97;;;;;;;12.43;96.78;101085.13;4935912;28;20027;-75
2022/05/25 06:27:11;;;;;;;7.32;5.50;;;;;;;12.88;94.46;101102.59;4964193;28;20138;-75
2022/05/25 06:29:43;;;;;;;7.90;4.78;;;;;;;13.86;92.26;101224.91;4960138;28;20542;-74
2022/05/25 06:32:11;;;;;;;8.30;4.90;;;;;;;14.37;90.15;101224.78;4976508;28;20066;-75
2022/05/25 06:34:38;;;;;;;7.45;5.35;;;;;;;14.68;87.98;101205.59;4977004;28;20031;-75
2022/05/25 06:37:04;;;;;;;20.75;5.32;;;;;;;14.94;86.70;101221.31;4982261;28;20031;-74
2022/05/25 06:39:35;;;;;;;8.75;4.70;;;;;;;15.11;84.67;101222.94;4982765;28;20287;-75
2022/05/25 06:42:01;;;;;;;7.95;4.55;;;;;;;15.69;84.18;101225.34;4985147;28;20560;-74
2022/05/25 06:44:27;;;;;;;7.18;4.32;;;;;;;15.48;82.98;101226.75;4979124;28;20034;-75
2022/05/25 06:46:52;;;;;;;7.82;4.43;;;;;;;16.03;81.40;101199.22;4973843;28;20057;-74
2022/05/25 06:49:18;;;;;;;7.90;4.43;;;;;;;15.97;81.42;101225.72;4962762;28;20110;-74
2022/05/25 06:51:43;;;;;;;6.68;3.97;;;;;;;15.86;79.54;101226.94;4992043;28;20031;-73
2022/05/25 06:54:09;;;;;;;7.22;4.53;;;;;;;15.75;79.89;101232.66;4981571;28;20096;-74
2022/05/25 06:56:35;;;;;;;7.30;3.53;;;;;;;15.89;79.18;101237.22;4976899;28;20461;-74
2022/05/25 06:59:00;;;;;;;3.92;3.05;;;;;;;16.54;78.96;101235.13;4974451;28;20038;-74
2022/05/25 07:01:27;;;;;;;8.15;3.70;;;;;;;17.15;78.07;101219.88;4970985;28;20042;-74
2022/05/25 07:03:53;;;;;;;8.20;3.60;;;;;;;17.61;74.65;101224.97;4960250;28;20025;-74
2022/05/25 07:06:20;;;;;;;5.00;3.72;;;;;;;17.89;72.40;101238.47;4985284;28;20030;-74
2022/05/25 07:08:46;;;;;;;6.93;3.30;;;;;;;17.94;72.44;101240.56;4957877;28;20049;-74
2022/05/25 07:11:12;;;;;;;4.55;2.38;;;;;;;18.40;72.33;101237.56;5000946;28;20046;-76
2022/05/25 07:13:39;;;;;;;3.78;2.50;;;;;;;17.66;69.43;101246.59;4981260;28;20066;-74
2022/05/25 07:16:08;;;;;;;7.57;3.15;;;;;;;18.46;70.85;101236.75;4979619;28;20057;-74
2022/05/25 07:18:33;;;;;;;6.32;2.95;;;;;;;18.59;68.85;101241.38;4975971;28;20101;-74
2022/05/25 07:21:06;;;;;;;3.65;3.08;;;;;;;18.42;67.45;101242.69;4983466;28;20035;-74
2022/05/25 07:23:36;;;;;;;4.63;2.28;;;;;;;18.39;68.23;101245.75;4982741;28;20029;-74
2022/05/25 07:26:02;;;;;;;4.53;2.40;;;;;;;18.28;67.69;101242.56;4958728;28;20422;-74
2022/05/25 07:28:28;;;;;;;6.97;3.10;;;;;;;18.04;67.82;101254.44;4979335;28;20023;-74
2022/05/25 07:30:59;;;;;;;5.65;2.47;;;;;;;17.44;69.59;101231.53;4977517;28;20053;-74
2022/05/25 07:33:26;;;;;;;4.07;2.13;;;;;;;17.90;69.08;101239.31;4978744;28;20027;-74
2022/05/25 07:35:51;;;;;;;5.13;2.58;;;;;;;18.42;69.94;101251.56;4972495;28;20475;-74
2022/05/25 07:38:17;;;;;;;4.93;2.50;;;;;;;19.25;68.34;101249.09;4960780;28;20053;-75
2022/05/25 07:40:44;;;;;;;4.78;2.47;;;;;;;19.33;65.93;101253.44;4976164;28;20050;-74
2022/05/25 07:43:13;;;;;;;5.55;2.55;;;;;;;19.27;66.94;101241.69;4981758;28;20030;-74
2022/05/25 07:45:39;;;;;;;3.58;2.60;;;;;;;20.09;65.04;101252.50;4978712;28;20188;-74
2022/05/25 07:48:05;;;;;;;5.78;2.72;;;;;;;19.09;65.51;101236.03;4963386;28;20112;-74
2022/05/25 07:50:31;;;;;;;4.65;2.50;;;;;;;19.00;65.67;101247.91;4996071;28;20474;-74
2022/05/25 07:52:59;;;;;;;6.88;2.33;;;;;;;18.83;67.14;101258.88;4982908;28;20046;-74
2022/05/25 07:55:25;;;;;;;6.50;2.03;;;;;;;19.48;62.94;101247.97;4998197;28;20042;-75
2022/05/25 07:57:50;;;;;;;3.47;1.55;;;;;;;19.51;61.96;101260.94;4984301;28;20026;-74
2022/05/25 08:00:18;;;;;;;2.70;1.75;;;;;;;19.88;62.17;101250.81;4986830;28;20324;-74
2022/05/25 08:05:44;;;;;;;4.03;1.73;;;;;;;20.53;59.11;101238.56;4983137;28;20089;-73
2022/05/25 08:08:18;;;;;;;4.05;1.80;;;;;;;20.88;59.80;101250.91;4980593;28;20057;-73
2022/05/25 08:10:47;;;;;;;6.45;2.22;;;;;;;20.91;58.67;101255.88;4985297;28;20450;-73
2022/05/25 08:13:17;;;;;;;8.40;2.10;;;;;;;20.55;58.76;101262.47;4983128;28;20366;-74
2022/05/25 08:15:44;;;;;;;3.17;1.60;;;;;;;19.30;61.61;101259.19;4962896;28;20040;-73
2022/05/25 08:18:14;;;;;;;3.85;1.63;;;;;;;20.31;59.48;101261.22;4984782;28;20076;-75
2022/05/25 08:20:40;;;;;;;;;;;;;;;20.50;58.35;101249.69;4982587;28;20070;-74
2022/05/25 08:23:09;;;;;;;3.67;1.90;;;;;;;19.70;62.31;101254.88;4985031;28;20302;-74
2022/05/25 08:25:35;;;;;;;4.57;1.90;;;;;;;20.04;60.47;101250.44;4989684;28;20038;-73
2022/05/25 08:28:01;;;;;;;3.88;1.92;;;;;;;20.92;58.54;101247.59;4983730;28;20041;-73
2022/05/25 08:30:27;;;;;;;4.07;1.88;;;;;;;20.34;58.40;101236.69;4975940;28;20027;-75
2022/05/25 08:32:53;;;;;;;4.45;2.13;;;;;;;20.24;60.69;101260.38;4979070;28;20022;-74
2022/05/25 08:35:19;;;;;;;7.32;2.40;;;;;;;20.05;60.45;101241.38;4980765;28;20093;-74
2022/05/25 08:37:44;;;;;;;6.20;2.45;;;;;;;18.86;62.93;101247.81;4948652;28;20031;-74
2022/05/25 08:40:14;;;;;;;3.05;2.13;;;;;;;18.07;66.48;101238.06;4980904;28;20061;-74
2022/05/25 08:42:53;;;;;;;4.15;2.65;;;;;;;18.60;65.80;101235.03;4965728;28;20425;-74
2022/05/25 08:45:22;;;;;;;4.72;2.08;;;;;;;18.70;64.62;101256.06;4978613;28;20431;-74
2022/05/25 08:47:53;;;;;;;4.93;2.78;;;;;;;18.76;64.89;101254.50;4976799;28;20010;-73
2022/05/25 08:50:19;;;;;;;3.33;1.90;;;;;;;19.00;64.87;101248.72;4981540;28;20385;-73
2022/05/25 08:52:46;;;;;;;3.40;2.45;;;;;;;19.68;63.43;101246.19;4981514;28;20030;-73
2022/05/25 08:55:12;;;;;;;3.17;2.30;;;;;;;18.83;62.93;101252.72;4961847;28;20532;-73
2022/05/25 08:57:48;;;;;;;4.13;2.45;;;;;;;19.30;62.46;101260.03;4977273;28;20669;-73
2022/05/25 09:00:17;;;;;;;3.80;2.30;;;;;;;18.91;62.45;101256.06;4980888;28;20022;-73
2022/05/25 09:02:58;;;;;;;4.50;2.00;;;;;;;19.00;62.74;101258.59;4978204;28;20025;-73
2022/05/25 09:05:41;;;;;;;3.50;2.28;;;;;;;18.83;61.40;101261.56;4979854;28;20018;-73
2022/05/25 09:08:45;;;;;;;4.93;1.92;;;;;;;19.07;63.01;101260.28;4973752;28;20019;-73
2022/05/25 09:11:15;;;;;;;3.47;1.90;;;;;;;19.13;60.74;101258.69;4885167;29;20147;-73
2022/05/25 09:13:52;;;;;;;3.78;2.47;;;;;;;18.40;62.59;101242.91;4872152;29;20044;-73
2022/05/25 09:16:22;;;;;;;2.35;1.92;;;;;;;18.13;65.24;101268.50;4889557;29;20116;-73
2022/05/25 09:18:56;;;;;;;2.75;2.10;;;;;;;18.36;66.17;101260.31;4884646;29;20040;-73
2022/05/25 09:21:26;;;;;;;3.72;1.80;;;;;;;18.52;64.77;101261.09;4886253;29;20040;-73
2022/05/25 09:23:55;;;;;;;4.28;1.90;;;;;;;18.77;62.62;101262.31;4876392;29;20071;-73
2022/05/25 09:26:20;;;;;;;5.20;1.83;;;;;;;19.41;62.22;101265.84;4892004;29;20028;-73
2022/05/25 09:28:50;;;;;;;6.43;1.88;;;;;;;19.63;60.15;101264.69;4887034;29;20498;-73
2022/05/25 09:31:21;;;;;;;5.10;1.55;;;;;;;20.03;60.18;101250.63;4877473;29;20031;-73
2022/05/25 09:33:57;;;;;;;3.70;2.05;;;;;;;20.67;57.02;101252.81;4889684;29;20036;-75
2022/05/25 09:36:29;;;;;;;3.10;2.10;;;;;;;19.96;57.90;101258.66;4887513;29;20575;-73
2022/05/25 09:39:05;;;;;;;4.70;1.95;;;;;;;20.47;58.68;101260.81;4888401;29;20510;-73
2022/05/25 09:41:31;;;;;;;3.47;2.22;;;;;;;20.31;58.31;101251.31;4876508;29;20139;-73
2022/05/25 09:44:00;;;;;;;4.28;1.98;;;;;;;20.30;58.83;101264.94;4874670;29;20091;-73
2022/05/25 09:46:36;;;;;;;5.35;2.17;;;;;;;20.95;59.39;101266.00;4920531;28;20026;-74
2022/05/25 09:49:05;;;;;;;5.38;2.38;;;;;;;20.57;58.66;101254.22;4978998;28;20018;-74
2022/05/25 09:51:44;;;;;;;4.15;2.20;;;;;;;20.06;58.37;101261.78;4978947;28;20112;-73
2022/05/25 09:54:27;;;;;;;2.80;2.00;;;;;;;19.80;59.28;101259.03;4979458;28;20027;-73
2022/05/25 09:57:07;;;;;;;3.65;2.30;;;;;;;20.37;59.31;101255.03;4964262;28;20022;-73
2022/05/25 09:59:42;;;;;;;5.93;2.15;;;;;;;19.79;59.63;101266.22;4980060;28;20031;-75
2022/05/25 10:02:29;;;;;;;5.47;2.22;;;;;;;19.83;59.82;101255.94;4976887;28;20150;-73
2022/05/25 10:05:05;;;;;;;4.07;1.90;;;;;;;20.01;59.68;101255.38;4982526;28;20050;-73
2022/05/25 10:07:35;;;;;;;2.67;1.77;;;;;;;20.14;59.74;101261.59;4983940;28;20026;-73
2022/05/25 10:10:05;;;;;;;6.53;1.90;;;;;;;21.00;58.06;101264.53;4963094;28;20026;-73
2022/05/25 10:12:52;;;;;;;3.15;1.73;;;;;;;20.28;56.67;101272.34;4970862;28;20029;-73
2022/05/25 10:15:31;;;;;;;2.20;1.40;;;;;;;20.58;57.95;101270.16;4969631;28;20049;-73
2022/05/25 10:17:59;;;;;;;7.25;1.55;;;;;;;19.60;58.11;101264.25;4977405;28;20382;-73
2022/05/25 10:20:30;;;;;;;3.45;1.85;;;;;;;19.21;61.15;101263.06;4982081;28;20532;-73
2022/05/25 10:23:04;;;;;;;4.10;2.08;;;;;;;19.51;58.23;101271.63;4959548;28;20026;-73
2022/05/25 10:25:47;;;;;;;3.20;1.90;;;;;;;19.57;60.03;101257.47;4970196;28;20058;-73
2022/05/25 10:28:32;;;;;;;2.67;1.60;;;;;;;20.08;59.82;101266.97;4986267;28;20038;-73
2022/05/25 10:37:14;;;;;;;5.53;2.05;;;;;;;19.33;62.44;101259.63;4984516;28;19971;-73
2022/05/25 10:39:48;;;;;;;3.85;2.30;;;;;;;19.39;61.63;101257.19;4984706;28;20053;-74
2022/05/25 10:42:37;;;;;;;3.30;2.03;;;;;;;19.00;60.56;101261.28;4982779;28;20401;-73
2022/05/25 10:45:08;;;;;;;2.72;1.92;;;;;;;17.77;61.98;101249.78;4980557;28;20436;-73
2022/05/25 10:50:16;;;;;;;3.78;2.20;;;;;;;17.42;66.11;101241.56;4979202;28;20070;-73
2022/05/25 10:52:48;;;;;;;4.18;2.20;;;;;;;17.21;67.06;101243.16;4979507;28;20062;-73
2022/05/25 10:55:13;;;;;;;4.72;2.00;;;;;;;16.94;66.99;101251.75;4978892;28;20034;-73
2022/05/25 10:58:07;;;;;;;3.80;2.20;;;;;;;16.96;66.76;101244.41;4981901;28;20053;-74
2022/05/25 11:01:16;;;;;;;3.83;2.58;;;;;;;17.27;68.03;101260.25;4977742;28;20287;-73
2022/05/25 11:04:00;;;;;;;4.88;2.78;;;;;;;17.31;66.57;101258.03;4969707;28;20065;-73
2022/05/25 11:06:45;;;;;;;3.88;2.28;;;;;;;17.44;66.92;101248.38;4980805;28;20405;-73
2022/05/25 11:09:25;;;;;;;5.10;3.20;;;;;;;17.30;65.86;101245.72;4978030;28;20452;-73
2022/05/25 11:11:56;;;;;;;5.13;3.63;;;;;;;17.58;66.38;101252.03;4979569;28;20486;-73
2022/05/25 11:14:57;;;;;;;3.70;2.85;;;;;;;17.56;64.73;101256.75;4979113;28;20193;-73
2022/05/25 11:17:31;;;;;;;6.38;3.35;;;;;;;16.97;67.08;101246.09;4974430;28;20394;-73
2022/05/25 11:20:10;;;;;;;4.20;2.88;;;;;;;16.39;67.66;101254.53;4979663;28;20054;-73
2022/05/25 11:23:09;;;;;;;7.40;3.45;;;;;;;16.40;69.63;101261.53;4977933;28;20427;-73
2022/05/25 11:26:09;;;;;;;4.82;3.45;;;;;;;16.40;76.86;101304.16;4981534;28;20050;-73
2022/05/25 11:29:00;;;;;;;8.05;2.40;;;;;;;15.75;80.02;101288.56;4958736;28;20057;-74
2022/05/25 11:31:46;;;;;;;4.43;1.75;;;;;;;15.49;81.27;101289.63;4991916;28;20038;-74
2022/05/25 11:34:33;;;;;;;11.80;3.05;;;;;;;15.30;84.43;101271.38;4978472;28;20038;-74
2022/05/25 11:37:16;;;;;;;3.97;2.10;;;;;;;15.55;87.70;101241.03;4980380;28;20165;-74
2022/05/25 11:40:39;;;;;;;7.80;2.30;;;;;;;16.24;85.68;101273.16;4976827;28;20082;-74
2022/05/25 11:43:23;;;;;;;5.47;1.95;;;;;;;17.02;83.14;101281.00;4908098;29;20322;-74
2022/05/25 11:45:57;;;;;;;4.07;1.73;;;;;;;17.10;76.86;101256.94;4892095;29;20020;-75
2022/05/25 11:48:41;;;;;;;8.00;2.20;;;;;;;17.80;78.28;101271.59;4906626;29;20062;-74
2022/05/25 11:51:23;;;;;;;1.63;1.30;;;;;;;19.33;74.27;101270.31;4902568;29;20091;-74
2022/05/25 11:54:12;;;;;;;2.95;1.58;;;;;;;19.45;66.84;101269.78;4905687;29;20409;-74
2022/05/25 11:56:56;;;;;;;2.05;1.30;;;;;;;18.91;71.47;101263.28;4904362;29;20036;-74
2022/05/25 11:59:24;;;;;;;3.38;1.50;;;;;;;20.90;67.50;101263.09;4892395;29;20039;-74
2022/05/25 12:02:16;;;;;;;1.70;1.38;;;;;;;21.49;60.20;101263.19;4903091;29;20047;-74